createdAt,value
2023-06-24T00:01:02.431Z,19.56
2023-06-24T00:03:30.666Z,19.53
2023-06-24T00:05:58.866Z,19.44
2023-06-24T00:08:35.707Z,19.40
2023-06-24T00:11:04.625Z,19.42
2023-06-24T00:13:32.548Z,19.45
2023-06-24T00:16:02.784Z,19.37
2023-06-24T00:18:31.030Z,19.30
2023-06-24T00:20:58.976Z,19.38
2023-06-24T00:23:27.019Z,19.28
2023-06-24T00:25:56.741Z,19.26
2023-06-24T00:28:24.836Z,19.27
2023-06-24T00:30:53.815Z,19.27
2023-06-24T00:33:22.309Z,19.21
2023-06-24T00:35:50.199Z,19.07
2023-06-24T00:38:18.040Z,19.28
2023-06-24T00:40:47.580Z,19.20
2023-06-24T00:43:16.352Z,19.13
2023-06-24T00:45:45.129Z,19.03
2023-06-24T00:48:14.754Z,19.09
2023-06-24T00:50:46.925Z,19.10
2023-06-24T00:53:14.956Z,19.16
2023-06-24T00:55:45.322Z,19.13
2023-06-24T00:58:22.041Z,19.00
2023-06-24T01:00:58.417Z,18.99
2023-06-24T01:03:27.341Z,18.74
2023-06-24T01:05:56.428Z,18.85
2023-06-24T01:08:24.677Z,18.75
2023-06-24T01:10:53.526Z,18.80
2023-06-24T01:13:21.753Z,18.67
2023-06-24T01:15:50.398Z,18.75
2023-06-24T01:18:31.352Z,18.67
2023-06-24T01:21:27.364Z,18.63
2023-06-24T01:24:01.658Z,18.65
2023-06-24T01:27:14.083Z,18.21
2023-06-24T01:30:06.431Z,18.35
2023-06-24T01:33:10.152Z,18.42
2023-06-24T01:35:39.703Z,18.41
2023-06-24T01:38:26.235Z,18.43
2023-06-24T01:40:56.600Z,18.41
2023-06-24T01:43:25.965Z,18.44
2023-06-24T01:45:57.592Z,18.31
2023-06-24T01:48:29.788Z,18.36
2023-06-24T01:51:23.897Z,18.25
2023-06-24T01:54:03.699Z,18.19
2023-06-24T01:56:33.263Z,18.29
2023-06-24T01:59:05.230Z,18.32
2023-06-24T02:01:34.922Z,18.27
2023-06-24T02:04:04.778Z,18.33
2023-06-24T02:06:33.479Z,18.36
2023-06-24T02:09:02.361Z,18.42
2023-06-24T02:11:32.952Z,18.34
2023-06-24T02:14:03.853Z,18.37
2023-06-24T02:16:34.861Z,18.39
2023-06-24T02:19:06.115Z,18.39
2023-06-24T02:21:36.760Z,18.33
2023-06-24T02:24:05.917Z,18.36
2023-06-24T02:26:35.465Z,18.34
2023-06-24T02:29:06.165Z,18.32
2023-06-24T02:31:34.261Z,18.34
2023-06-24T02:34:02.513Z,18.33
2023-06-24T02:36:30.581Z,18.29
2023-06-24T02:38:58.492Z,18.28
2023-06-24T02:41:26.451Z,18.04
2023-06-24T02:43:54.605Z,18.13
2023-06-24T02:46:30.762Z,18.17
2023-06-24T02:48:59.445Z,18.00
2023-06-24T02:52:40.266Z,18.09
2023-06-24T02:55:11.714Z,18.06
2023-06-24T02:57:41.570Z,17.89
2023-06-24T03:00:28.849Z,17.86
2023-06-24T03:03:23.646Z,17.98
2023-06-24T03:05:58.033Z,17.90
2023-06-24T03:08:29.061Z,17.71
2023-06-24T03:10:59.659Z,17.23
2023-06-24T03:13:30.910Z,16.90
2023-06-24T03:16:13.554Z,16.77
2023-06-24T03:18:50.257Z,16.79
2023-06-24T03:21:18.544Z,17.00
2023-06-24T03:23:46.718Z,17.05
2023-06-24T03:26:16.957Z,17.14
2023-06-24T03:28:45.472Z,17.29
2023-06-24T03:31:18.146Z,17.33
2023-06-24T03:33:46.838Z,17.51
2023-06-24T03:36:17.232Z,17.54
2023-06-24T03:38:46.052Z,17.49
2023-06-24T03:41:14.235Z,17.43
2023-06-24T03:43:43.291Z,17.58
2023-06-24T03:46:11.763Z,17.70
2023-06-24T03:48:40.140Z,17.80
2023-06-24T03:51:08.152Z,17.88
2023-06-24T03:53:36.123Z,17.98
2023-06-24T03:56:04.750Z,17.91
2023-06-24T03:58:32.865Z,17.87
2023-06-24T04:01:01.874Z,17.93
2023-06-24T04:03:30.441Z,18.01
2023-06-24T04:05:58.814Z,18.09
2023-06-24T04:08:30.530Z,18.13
2023-06-24T04:11:01.448Z,17.76
2023-06-24T04:13:29.476Z,17.55
2023-06-24T04:15:57.456Z,17.70
2023-06-24T04:18:25.847Z,17.88
2023-06-24T04:20:55.714Z,17.98
2023-06-24T04:23:23.872Z,18.19
2023-06-24T04:25:52.032Z,18.32
2023-06-24T04:28:22.647Z,18.45
2023-06-24T04:30:53.200Z,18.56
2023-06-24T04:33:21.373Z,18.55
2023-06-24T04:35:49.446Z,18.86
2023-06-24T04:38:19.707Z,19.01
2023-06-24T04:40:49.475Z,19.09
2023-06-24T04:43:17.598Z,18.88
2023-06-24T04:45:45.714Z,19.15
2023-06-24T04:48:13.784Z,19.22
2023-06-24T04:50:42.130Z,19.36
2023-06-24T04:53:10.613Z,19.04
2023-06-24T04:55:38.776Z,19.12
2023-06-24T04:58:07.051Z,19.27
2023-06-24T05:00:35.379Z,19.52
2023-06-24T05:03:03.649Z,19.75
2023-06-24T05:05:35.092Z,19.85
2023-06-24T05:08:04.425Z,19.98
2023-06-24T05:10:32.460Z,20.12
2023-06-24T05:13:00.424Z,20.27
2023-06-24T05:15:28.601Z,20.50
2023-06-24T05:17:57.613Z,20.62
2023-06-24T05:20:25.647Z,20.80
2023-06-24T05:22:53.727Z,20.96
2023-06-24T05:25:21.730Z,21.10
2023-06-24T05:27:49.728Z,21.31
2023-06-24T05:30:17.839Z,21.49
2023-06-24T05:32:45.913Z,21.66
2023-06-24T05:35:14.127Z,21.58
2023-06-24T05:37:42.237Z,21.72
2023-06-24T05:40:10.925Z,21.58
2023-06-24T05:42:38.897Z,21.75
2023-06-24T05:45:07.925Z,21.90
2023-06-24T05:47:36.000Z,22.13
2023-06-24T05:50:04.290Z,22.45
2023-06-24T05:52:32.345Z,22.51
2023-06-24T05:55:07.551Z,22.67
2023-06-24T05:57:35.594Z,23.31
2023-06-24T06:00:06.445Z,24.61
2023-06-24T06:02:40.552Z,26.06
2023-06-24T06:05:08.802Z,27.08
2023-06-24T06:07:39.553Z,28.34
2023-06-24T06:10:08.265Z,29.26
2023-06-24T06:12:36.370Z,29.67
2023-06-24T06:15:05.052Z,30.58
2023-06-24T06:17:37.692Z,30.53
2023-06-24T06:20:06.856Z,30.25
2023-06-24T06:22:39.055Z,30.90
2023-06-24T06:25:07.946Z,30.38
2023-06-24T06:27:36.255Z,30.52
2023-06-24T06:30:05.337Z,30.71
2023-06-24T06:32:34.033Z,31.16
2023-06-24T06:35:02.610Z,30.76
2023-06-24T06:37:30.612Z,30.65
2023-06-24T06:39:58.960Z,30.19
2023-06-24T06:42:27.277Z,31.32
2023-06-24T06:44:55.845Z,32.39
2023-06-24T06:47:24.483Z,32.74
2023-06-24T06:49:52.588Z,31.93
2023-06-24T06:52:20.697Z,31.97
2023-06-24T06:54:48.628Z,31.89
2023-06-24T06:57:19.993Z,31.44
2023-06-24T06:59:51.207Z,31.58
2023-06-24T07:02:20.585Z,32.52
2023-06-24T07:04:49.517Z,33.33
2023-06-24T07:07:18.836Z,34.13
2023-06-24T07:09:49.428Z,35.04
2023-06-24T07:12:19.305Z,34.69
2023-06-24T07:14:47.930Z,33.79
2023-06-24T07:17:16.192Z,32.38
2023-06-24T07:19:44.590Z,32.42
2023-06-24T07:22:13.464Z,32.03
2023-06-24T07:24:42.534Z,31.57
2023-06-24T07:27:11.211Z,31.16
2023-06-24T07:29:39.922Z,30.18
2023-06-24T07:32:09.091Z,30.20
2023-06-24T07:34:40.272Z,30.34
2023-06-24T07:37:22.822Z,30.83
2023-06-24T07:39:53.388Z,31.70
2023-06-24T07:42:22.001Z,31.86
2023-06-24T07:44:51.229Z,33.17
2023-06-24T07:47:20.497Z,33.89
2023-06-24T07:49:52.103Z,33.01
2023-06-24T07:52:20.915Z,31.71
2023-06-24T07:54:50.090Z,31.43
2023-06-24T07:57:18.783Z,31.36
2023-06-24T07:59:48.353Z,30.44
2023-06-24T08:02:18.228Z,30.19
2023-06-24T08:04:46.917Z,29.95
2023-06-24T08:07:16.610Z,29.32
2023-06-24T08:09:45.282Z,28.97
2023-06-24T08:12:13.782Z,29.24
2023-06-24T08:14:42.506Z,29.25
2023-06-24T08:17:11.179Z,29.29
2023-06-24T08:19:39.765Z,29.10
2023-06-24T08:22:08.387Z,29.38
2023-06-24T08:24:38.045Z,29.36
2023-06-24T08:27:06.384Z,29.22
2023-06-24T08:29:35.070Z,29.14
2023-06-24T08:32:03.531Z,28.98
2023-06-24T08:34:31.948Z,28.63
2023-06-24T08:37:00.738Z,28.81
2023-06-24T08:39:29.200Z,28.69
2023-06-24T08:41:57.798Z,28.95
2023-06-24T08:44:26.478Z,28.99
2023-06-24T08:46:55.255Z,29.40
2023-06-24T08:49:27.572Z,29.65
2023-06-24T08:52:12.655Z,29.96
2023-06-24T08:54:42.868Z,29.52
2023-06-24T08:57:16.077Z,29.23
2023-06-24T08:59:44.734Z,29.40
2023-06-24T09:02:15.317Z,29.46
2023-06-24T09:04:44.051Z,29.98
2023-06-24T09:07:13.513Z,30.29
2023-06-24T09:09:48.606Z,30.66
2023-06-24T09:12:19.802Z,30.78
2023-06-24T09:14:51.494Z,30.80
2023-06-24T09:17:24.222Z,30.77
2023-06-24T09:19:53.456Z,30.83
2023-06-24T09:22:21.701Z,30.64
2023-06-24T09:24:50.212Z,30.15
2023-06-24T09:27:23.521Z,30.04
2023-06-24T09:29:53.599Z,29.48
2023-06-24T09:32:22.384Z,29.55
2023-06-24T09:34:51.442Z,29.90
2023-06-24T09:37:25.030Z,29.96
2023-06-24T09:39:54.813Z,30.20
2023-06-24T09:42:24.942Z,30.40
2023-06-24T09:44:57.633Z,30.62
2023-06-24T09:47:28.625Z,30.74
2023-06-24T09:49:57.167Z,30.67
2023-06-24T09:52:28.031Z,30.69
2023-06-24T09:54:58.244Z,30.72
2023-06-24T09:57:33.622Z,30.73
2023-06-24T10:00:03.578Z,30.82
2023-06-24T10:02:35.444Z,30.64
2023-06-24T10:05:06.057Z,30.57
2023-06-24T10:07:37.763Z,30.73
2023-06-24T10:10:07.236Z,30.67
2023-06-24T10:12:37.496Z,30.63
2023-06-24T10:15:07.758Z,30.58
2023-06-24T10:17:36.602Z,30.67
2023-06-24T10:20:07.685Z,30.77
2023-06-24T10:22:37.753Z,30.77
2023-06-24T10:25:09.713Z,30.72
2023-06-24T10:27:41.605Z,30.48
2023-06-24T10:30:18.004Z,30.66
2023-06-24T10:32:47.327Z,30.38
2023-06-24T10:35:27.456Z,30.22
2023-06-24T10:37:58.510Z,30.15
2023-06-24T10:40:40.880Z,30.13
2023-06-24T10:43:27.002Z,30.32
2023-06-24T10:46:00.698Z,30.20
2023-06-24T10:48:29.431Z,30.31
2023-06-24T10:50:58.091Z,29.88
2023-06-24T10:53:27.588Z,29.97
2023-06-24T10:55:59.275Z,30.23
2023-06-24T10:58:28.134Z,30.11
2023-06-24T11:01:10.265Z,30.10
2023-06-24T11:03:42.653Z,30.16
2023-06-24T11:06:13.602Z,30.27
2023-06-24T11:08:46.778Z,30.07
2023-06-24T11:11:22.839Z,30.03
2023-06-24T11:13:52.195Z,29.87
2023-06-24T11:16:23.755Z,29.54
2023-06-24T11:18:52.484Z,29.26
2023-06-24T11:21:21.013Z,29.11
2023-06-24T11:23:49.615Z,28.80
2023-06-24T11:26:18.378Z,28.73
2023-06-24T11:28:50.827Z,28.50
2023-06-24T11:31:19.632Z,28.40
2023-06-24T11:33:51.462Z,28.38
2023-06-24T11:36:24.013Z,28.32
2023-06-24T11:38:52.731Z,28.46
2023-06-24T11:41:23.336Z,28.41
2023-06-24T11:43:51.953Z,28.58
2023-06-24T11:46:30.103Z,28.65
2023-06-24T11:49:08.783Z,28.71
2023-06-24T11:51:37.946Z,28.69
2023-06-24T11:54:07.748Z,28.40
2023-06-24T11:56:38.134Z,28.58
2023-06-24T11:59:18.845Z,28.50
2023-06-24T12:02:04.569Z,28.55
2023-06-24T12:04:34.355Z,28.43
2023-06-24T12:07:03.544Z,27.97
2023-06-24T12:09:32.224Z,27.68
2023-06-24T12:12:00.736Z,27.55
2023-06-24T12:14:29.434Z,27.61
2023-06-24T12:16:57.888Z,27.56
2023-06-24T12:19:26.560Z,27.46
2023-06-24T12:21:55.082Z,27.57
2023-06-24T12:24:23.678Z,27.80
2023-06-24T12:26:52.970Z,27.62
2023-06-24T12:29:21.664Z,27.49
2023-06-24T12:31:50.244Z,27.52
2023-06-24T12:34:19.147Z,27.45
2023-06-24T12:36:47.788Z,27.60
2023-06-24T12:39:19.115Z,27.32
2023-06-24T12:41:49.366Z,27.41
2023-06-24T12:44:17.852Z,27.42
2023-06-24T12:46:46.560Z,27.57
2023-06-24T12:49:15.174Z,27.69
2023-06-24T12:51:44.066Z,27.60
2023-06-24T12:54:12.932Z,27.42
2023-06-24T12:56:41.352Z,27.46
2023-06-24T12:59:10.526Z,27.32
2023-06-24T13:01:39.382Z,27.31
2023-06-24T13:04:08.093Z,27.41
2023-06-24T13:06:36.694Z,27.43
2023-06-24T13:09:05.360Z,27.44
2023-06-24T13:11:34.056Z,27.43
2023-06-24T13:14:02.626Z,27.55
2023-06-24T13:16:31.308Z,27.61
2023-06-24T13:18:59.889Z,27.72
2023-06-24T13:21:28.530Z,27.76
2023-06-24T13:23:57.131Z,27.78
2023-06-24T13:26:26.262Z,27.84
2023-06-24T13:28:56.039Z,27.82
2023-06-24T13:31:25.030Z,27.76
2023-06-24T13:33:53.622Z,27.71
2023-06-24T13:36:38.829Z,27.79
2023-06-24T13:39:10.317Z,27.79
2023-06-24T13:41:39.166Z,27.83
2023-06-24T13:44:07.878Z,27.78
2023-06-24T13:46:36.709Z,27.85
2023-06-24T13:49:06.446Z,27.89
2023-06-24T13:51:36.023Z,27.88
2023-06-24T13:54:05.293Z,27.76
2023-06-24T13:56:33.730Z,27.73
2023-06-24T13:59:02.425Z,27.51
2023-06-24T14:01:31.233Z,27.32
2023-06-24T14:04:02.595Z,27.52
2023-06-24T14:06:31.155Z,27.49
2023-06-24T14:08:59.734Z,27.57
2023-06-24T14:11:28.592Z,27.49
2023-06-24T14:13:57.319Z,27.23
2023-06-24T14:16:26.133Z,26.81
2023-06-24T14:18:54.918Z,26.93
2023-06-24T14:21:23.685Z,26.87
2023-06-24T14:23:53.114Z,26.85
2023-06-24T14:26:23.836Z,26.81
2023-06-24T14:28:52.378Z,26.83
2023-06-24T14:31:21.177Z,26.78
2023-06-24T14:33:50.032Z,26.78
2023-06-24T14:36:18.598Z,26.82
2023-06-24T14:38:47.306Z,26.68
2023-06-24T14:41:15.816Z,26.64
2023-06-24T14:43:44.751Z,26.52
2023-06-24T14:46:13.499Z,26.57
2023-06-24T14:48:44.823Z,26.64
2023-06-24T14:51:13.653Z,26.59
2023-06-24T14:53:42.189Z,26.53
2023-06-24T14:56:10.815Z,26.55
2023-06-24T14:58:40.033Z,26.52
2023-06-24T15:01:08.643Z,26.46
2023-06-24T15:03:37.313Z,25.94
2023-06-24T15:06:06.135Z,25.09
2023-06-24T15:08:34.882Z,24.72
2023-06-24T15:15:53.593Z,23.67
2023-06-24T15:18:22.420Z,23.54
2023-06-24T15:20:51.028Z,23.46
2023-06-24T15:23:19.530Z,23.23
2023-06-24T15:25:48.172Z,23.18
2023-06-24T15:28:16.483Z,22.83
2023-06-24T15:30:44.902Z,23.03
2023-06-24T15:33:13.264Z,22.88
2023-06-24T15:35:42.085Z,23.02
2023-06-24T15:38:10.702Z,23.18
2023-06-24T15:40:42.576Z,23.29
2023-06-24T15:43:12.753Z,23.36
2023-06-24T15:45:41.889Z,23.07
2023-06-24T15:48:10.630Z,23.05
2023-06-24T15:50:41.156Z,22.94
2023-06-24T15:53:09.840Z,22.88
2023-06-24T15:55:38.434Z,22.72
2023-06-24T15:58:07.111Z,22.78
2023-06-24T16:00:35.855Z,22.50
2023-06-24T16:03:05.139Z,22.07
2023-06-24T16:05:38.773Z,21.93
2023-06-24T16:08:07.803Z,22.16
2023-06-24T16:10:36.437Z,22.34
2023-06-24T16:13:05.302Z,22.35
2023-06-24T16:15:34.243Z,22.30
2023-06-24T16:18:02.800Z,22.08
2023-06-24T16:20:31.520Z,21.88
2023-06-24T16:23:00.208Z,21.63
2023-06-24T16:25:28.808Z,21.46
2023-06-24T16:27:57.713Z,21.06
2023-06-24T16:30:26.224Z,20.94
2023-06-24T16:32:54.897Z,21.13
2023-06-24T16:35:23.501Z,21.16
2023-06-24T16:37:52.319Z,21.15
2023-06-24T16:40:22.075Z,21.37
2023-06-24T16:42:50.588Z,21.35
2023-06-24T16:45:19.558Z,20.98
2023-06-24T16:47:48.025Z,20.74
2023-06-24T16:50:16.676Z,21.00
2023-06-24T16:52:45.518Z,21.14
2023-06-24T16:55:14.832Z,21.03
2023-06-24T16:57:43.595Z,21.14
2023-06-24T17:00:13.405Z,21.17
2023-06-24T17:02:42.894Z,21.18
2023-06-24T17:05:11.589Z,20.82
2023-06-24T17:07:40.331Z,20.23
2023-06-24T17:10:09.207Z,20.32
2023-06-24T17:12:39.727Z,20.53
2023-06-24T17:15:11.581Z,20.64
2023-06-24T17:17:40.708Z,20.82
2023-06-24T17:20:10.016Z,20.84
2023-06-24T17:22:38.590Z,20.68
2023-06-24T17:25:07.021Z,20.54
2023-06-24T17:27:36.043Z,20.81
2023-06-24T17:30:05.113Z,20.86
2023-06-24T17:32:33.860Z,20.86
2023-06-24T17:35:02.502Z,20.88
2023-06-24T17:37:31.072Z,20.89
2023-06-24T17:39:59.679Z,20.48
2023-06-24T17:42:31.128Z,20.53
2023-06-24T17:44:59.780Z,20.62
2023-06-24T17:47:28.471Z,20.67
2023-06-24T17:49:57.212Z,20.79
2023-06-24T17:52:26.012Z,20.79
2023-06-24T17:54:54.801Z,20.84
2023-06-24T17:57:23.355Z,20.86
2023-06-24T17:59:51.964Z,20.91
2023-06-24T18:02:20.742Z,20.93
2023-06-24T18:04:52.259Z,20.99
2023-06-24T18:07:21.888Z,20.52
2023-06-24T18:09:51.447Z,20.76
2023-06-24T18:12:20.098Z,20.87
2023-06-24T18:14:48.711Z,20.90
2023-06-24T18:17:20.062Z,20.75
2023-06-24T18:19:49.629Z,20.44
2023-06-24T18:22:18.256Z,20.04
2023-06-24T18:24:46.825Z,19.73
2023-06-24T18:27:16.679Z,19.88
2023-06-24T18:29:45.252Z,20.05
2023-06-24T18:32:13.933Z,20.26
2023-06-24T18:34:42.144Z,20.33
2023-06-24T18:37:10.791Z,20.42
2023-06-24T18:39:39.216Z,20.53
2023-06-24T18:42:07.792Z,20.47
2023-06-24T18:44:36.482Z,20.49
2023-06-24T18:47:06.062Z,20.29
2023-06-24T18:49:34.602Z,20.31
2023-06-24T18:52:04.239Z,20.35
2023-06-24T18:54:35.567Z,20.34
2023-06-24T18:57:04.686Z,20.38
2023-06-24T18:59:33.344Z,20.42
2023-06-24T19:02:02.146Z,20.49
2023-06-24T19:04:32.229Z,19.99
2023-06-24T19:07:03.149Z,19.44
2023-06-24T19:09:31.806Z,19.36
2023-06-24T19:12:01.328Z,19.64
2023-06-24T19:14:30.079Z,19.81
2023-06-24T19:16:58.800Z,19.81
2023-06-24T19:19:27.548Z,19.91
2023-06-24T19:21:56.187Z,19.85
2023-06-24T19:24:24.784Z,19.93
2023-06-24T19:26:53.096Z,19.93
2023-06-24T19:29:21.725Z,19.94
2023-06-24T19:31:50.518Z,19.93
2023-06-24T19:34:19.253Z,19.91
2023-06-24T19:36:48.145Z,19.92
2023-06-24T19:39:18.453Z,19.68
2023-06-24T19:41:47.214Z,19.57
2023-06-24T19:44:15.789Z,19.63
2023-06-24T19:46:44.411Z,19.65
2023-06-24T19:49:13.077Z,19.77
2023-06-24T19:51:41.796Z,19.75
2023-06-24T19:54:10.661Z,19.68
2023-06-24T19:56:39.302Z,19.63
2023-06-24T19:59:08.041Z,19.69
2023-06-24T20:01:36.768Z,19.69
2023-06-24T20:04:06.611Z,19.67
2023-06-24T20:06:35.321Z,19.67
2023-06-24T20:09:03.976Z,19.66
2023-06-24T20:11:32.799Z,19.60
2023-06-24T20:14:01.413Z,19.58
2023-06-24T20:16:29.934Z,19.58
2023-06-24T20:18:58.323Z,19.61
2023-06-24T20:21:26.931Z,19.56
2023-06-24T20:23:55.229Z,19.55
2023-06-24T20:26:23.438Z,19.53
2023-06-24T20:28:52.340Z,19.45
2023-06-24T20:31:20.832Z,19.44
2023-06-24T20:33:49.764Z,19.24
2023-06-24T20:36:18.623Z,18.60
2023-06-24T20:38:47.325Z,18.72
2023-06-24T20:41:24.696Z,18.95
2023-06-24T20:43:53.474Z,18.95
2023-06-24T20:46:22.509Z,18.70
2023-06-24T20:48:51.420Z,18.59
2023-06-24T20:51:20.432Z,18.41
2023-06-24T20:53:49.262Z,18.55
2023-06-24T20:56:18.113Z,18.74
2023-06-24T20:58:46.917Z,18.74
2023-06-24T21:01:18.333Z,18.83
2023-06-24T21:03:47.037Z,19.02
2023-06-24T21:06:15.492Z,19.13
2023-06-24T21:08:44.255Z,19.22
2023-06-24T21:11:12.534Z,19.23
2023-06-24T21:13:42.052Z,18.90
2023-06-24T21:16:10.482Z,18.87
2023-06-24T21:18:39.195Z,19.10
2023-06-24T21:21:07.678Z,19.23
2023-06-24T21:23:35.683Z,19.30
2023-06-24T21:26:04.063Z,19.37
2023-06-24T21:28:32.446Z,19.31
2023-06-24T21:31:00.596Z,19.07
2023-06-24T21:33:29.136Z,18.86
2023-06-24T21:36:01.106Z,19.04
2023-06-24T21:38:30.030Z,19.01
2023-06-24T21:40:58.249Z,18.76
2023-06-24T21:43:26.284Z,19.02
2023-06-24T21:45:54.466Z,19.03
2023-06-24T21:48:22.754Z,19.11
2023-06-24T21:50:50.818Z,19.05
2023-06-24T21:53:18.992Z,19.13
2023-06-24T21:55:46.976Z,19.07
2023-06-24T21:58:15.284Z,19.18
2023-06-24T22:00:44.289Z,19.22
2023-06-24T22:03:12.488Z,19.31
2023-06-24T22:05:40.664Z,19.30
2023-06-24T22:08:08.774Z,19.33
2023-06-24T22:10:37.123Z,19.36
2023-06-24T22:13:05.454Z,19.41
2023-06-24T22:15:33.476Z,19.51
2023-06-24T22:18:01.766Z,19.45
2023-06-24T22:20:29.717Z,19.54
2023-06-24T22:22:57.735Z,19.56
2023-06-24T22:25:25.736Z,19.46
2023-06-24T22:27:53.827Z,19.41
2023-06-24T22:30:21.837Z,19.57
2023-06-24T22:32:50.142Z,19.55
2023-06-24T22:35:18.465Z,19.62
2023-06-24T22:37:46.522Z,19.61
2023-06-24T22:40:14.717Z,19.64
2023-06-24T22:42:43.276Z,19.69
2023-06-24T22:45:13.600Z,19.69
2023-06-24T22:47:42.094Z,19.65
2023-06-24T22:50:10.786Z,19.62
2023-06-24T22:52:38.781Z,19.49
2023-06-24T22:55:07.424Z,19.52
2023-06-24T22:57:35.225Z,19.42
2023-06-24T23:00:03.869Z,19.48
2023-06-24T23:02:33.024Z,19.53
2023-06-24T23:05:01.066Z,19.49
2023-06-24T23:07:29.459Z,19.52
2023-06-24T23:09:57.772Z,19.56
2023-06-24T23:12:28.249Z,19.54
2023-06-24T23:14:57.942Z,19.53
2023-06-24T23:17:28.649Z,19.59
2023-06-24T23:19:58.186Z,19.52
2023-06-24T23:22:26.459Z,19.41
2023-06-24T23:24:54.846Z,19.34
2023-06-24T23:27:24.569Z,19.37
2023-06-24T23:29:58.041Z,19.33
2023-06-24T23:32:26.313Z,19.24
2023-06-24T23:34:54.730Z,19.23
2023-06-24T23:37:23.870Z,19.28
2023-06-24T23:39:52.148Z,19.19
2023-06-24T23:42:21.045Z,19.21
2023-06-24T23:44:49.169Z,19.19
2023-06-24T23:47:17.157Z,18.87
2023-06-24T23:49:45.264Z,19.20
2023-06-24T23:52:13.611Z,19.23
2023-06-24T23:54:41.531Z,19.33
2023-06-24T23:57:09.601Z,19.41
2023-06-24T23:59:37.520Z,19.40
